createdAt,value
2022-07-30T00:00:08.315Z,92.19
2022-07-30T00:01:08.369Z,92.19
2022-07-30T00:02:08.318Z,92.19
2022-07-30T00:03:08.283Z,92.19
2022-07-30T00:04:08.311Z,91.99
2022-07-30T00:05:08.261Z,91.99
2022-07-30T00:06:08.256Z,91.49
2022-07-30T00:07:08.238Z,91.58
2022-07-30T00:08:08.249Z,91.69
2022-07-30T00:09:08.223Z,92.19
2022-07-30T00:10:08.201Z,92.29
2022-07-30T00:11:08.191Z,91.99
2022-07-30T00:12:08.185Z,91.83
2022-07-30T00:13:08.179Z,91.83
2022-07-30T00:14:08.209Z,91.93
2022-07-30T00:15:08.153Z,91.93
2022-07-30T00:16:08.150Z,92.03
2022-07-30T00:17:08.236Z,92.43
2022-07-30T00:18:08.114Z,92.33
2022-07-30T00:19:08.390Z,92.43
2022-07-30T00:20:08.094Z,92.54
2022-07-30T00:21:08.082Z,92.74
2022-07-30T00:22:08.066Z,93.14
2022-07-30T00:23:08.052Z,93.34
2022-07-30T00:24:08.055Z,93.59
2022-07-30T00:25:08.054Z,93.49
2022-07-30T00:26:08.032Z,93.79
2022-07-30T00:27:08.035Z,93.79
2022-07-30T00:28:08.009Z,93.79
2022-07-30T00:29:07.984Z,93.89
2022-07-30T00:30:07.984Z,93.99
2022-07-30T00:31:08.121Z,94.09
2022-07-30T00:32:08.001Z,94.19
2022-07-30T00:33:08.313Z,94.39
2022-07-30T00:34:07.958Z,94.59
2022-07-30T00:35:07.926Z,94.94
2022-07-30T00:36:07.934Z,94.94
2022-07-30T00:37:07.935Z,95.04
2022-07-30T00:38:07.901Z,95.14
2022-07-30T00:39:07.891Z,95.25
2022-07-30T00:40:07.876Z,95.25
2022-07-30T00:41:07.857Z,95.14
2022-07-30T00:42:07.876Z,95.04
2022-07-30T00:43:07.848Z,94.94
2022-07-30T00:44:07.822Z,94.84
2022-07-30T00:45:07.811Z,94.74
2022-07-30T00:46:07.855Z,94.64
2022-07-30T00:47:07.790Z,94.64
2022-07-30T00:48:07.803Z,94.64
2022-07-30T00:49:07.788Z,94.84
2022-07-30T00:50:07.757Z,94.74
2022-07-30T00:51:07.750Z,94.84
2022-07-30T00:52:07.743Z,95.04
2022-07-30T00:53:07.709Z,95.29
2022-07-30T00:54:07.749Z,95.49
2022-07-30T00:55:07.712Z,95.59
2022-07-30T00:56:07.686Z,95.70
2022-07-30T00:57:07.669Z,95.79
2022-07-30T00:58:07.649Z,96.00
2022-07-30T00:59:07.710Z,96.25
2022-07-30T01:00:07.641Z,96.55
2022-07-30T01:01:07.679Z,96.65
2022-07-30T01:02:07.697Z,96.85
2022-07-30T01:03:07.599Z,97.05
2022-07-30T01:04:07.584Z,97.16
2022-07-30T01:05:07.611Z,97.16
2022-07-30T01:06:14.097Z,97.16
2022-07-30T01:07:08.570Z,97.36
2022-07-30T01:08:07.564Z,97.45
2022-07-30T01:09:07.531Z,97.50
2022-07-30T01:10:07.538Z,97.50
2022-07-30T01:11:07.552Z,97.71
2022-07-30T01:12:07.497Z,97.80
2022-07-30T01:13:07.492Z,97.91
2022-07-30T01:14:07.485Z,97.91
2022-07-30T01:15:07.467Z,98.11
2022-07-30T01:16:07.506Z,98.11
2022-07-30T01:17:07.473Z,98.36
2022-07-30T01:18:07.422Z,98.46
2022-07-30T01:19:07.418Z,98.56
2022-07-30T01:20:08.176Z,98.66
2022-07-30T01:21:07.412Z,98.76
2022-07-30T01:22:07.384Z,98.76
2022-07-30T01:23:07.437Z,98.86
2022-07-30T01:24:07.376Z,98.96
2022-07-30T01:25:07.360Z,98.96
2022-07-30T01:26:07.380Z,99.07
2022-07-30T01:27:07.324Z,99.07
2022-07-30T01:28:07.346Z,98.96
2022-07-30T01:29:07.316Z,98.96
2022-07-30T01:30:07.299Z,99.07
2022-07-30T01:31:07.287Z,99.16
2022-07-30T01:32:07.350Z,99.27
2022-07-30T01:33:07.286Z,99.27
2022-07-30T01:34:07.268Z,99.27
2022-07-30T01:35:07.248Z,99.27
2022-07-30T01:36:07.233Z,99.32
2022-07-30T01:37:07.208Z,99.32
2022-07-30T01:38:07.208Z,99.32
2022-07-30T01:39:07.204Z,99.32
2022-07-30T01:40:07.201Z,99.41
2022-07-30T01:41:07.179Z,99.41
2022-07-30T01:42:07.149Z,99.62
2022-07-30T01:43:07.129Z,99.82
2022-07-30T01:44:07.129Z,99.92
2022-07-30T01:45:07.121Z,99.99
2022-07-30T01:46:07.216Z,99.99
2022-07-30T01:47:07.101Z,99.99
2022-07-30T01:48:07.069Z,99.99
2022-07-30T01:49:07.090Z,99.99
2022-07-30T01:50:07.049Z,99.99
2022-07-30T01:51:07.071Z,99.99
2022-07-30T01:52:07.062Z,99.99
2022-07-30T01:53:07.043Z,99.99
2022-07-30T01:54:07.011Z,99.99
2022-07-30T01:55:16.925Z,99.99
2022-07-30T01:56:10.698Z,99.99
2022-07-30T01:57:06.991Z,99.99
2022-07-30T01:58:06.976Z,99.99
2022-07-30T01:59:06.963Z,99.99
2022-07-30T02:00:06.940Z,99.99
2022-07-30T02:01:06.967Z,99.99
2022-07-30T02:02:06.934Z,99.99
2022-07-30T02:03:07.048Z,99.99
2022-07-30T02:04:06.925Z,99.99
2022-07-30T02:05:06.872Z,99.99
2022-07-30T02:06:06.884Z,99.99
2022-07-30T02:07:06.855Z,99.99
2022-07-30T02:08:06.854Z,99.99
2022-07-30T02:09:10.621Z,99.99
2022-07-30T02:10:06.834Z,99.99
2022-07-30T02:11:06.815Z,99.99
2022-07-30T02:12:06.804Z,99.99
2022-07-30T02:13:06.798Z,99.99
2022-07-30T02:14:06.795Z,99.99
2022-07-30T02:15:06.778Z,99.99
2022-07-30T02:16:06.794Z,99.99
2022-07-30T02:17:06.734Z,99.99
2022-07-30T02:18:06.725Z,99.99
2022-07-30T02:19:06.981Z,99.99
2022-07-30T02:20:09.726Z,99.99
2022-07-30T02:21:07.539Z,99.99
2022-07-30T02:22:06.862Z,99.99
2022-07-30T02:23:06.679Z,99.99
2022-07-30T02:24:06.647Z,99.99
2022-07-30T02:25:06.628Z,99.99
2022-07-30T02:26:06.684Z,99.99
2022-07-30T02:27:06.633Z,99.99
2022-07-30T02:28:06.619Z,99.99
2022-07-30T02:29:11.105Z,99.82
2022-07-30T02:30:06.641Z,99.72
2022-07-30T02:31:17.539Z,99.72
2022-07-30T02:32:07.606Z,99.62
2022-07-30T02:33:06.551Z,99.62
2022-07-30T02:34:06.530Z,99.62
2022-07-30T02:35:06.520Z,99.52
2022-07-30T02:36:11.203Z,99.52
2022-07-30T02:37:07.513Z,99.41
2022-07-30T02:38:06.517Z,99.41
2022-07-30T02:39:06.474Z,99.46
2022-07-30T02:40:06.473Z,99.36
2022-07-30T02:41:06.464Z,99.46
2022-07-30T02:42:06.443Z,99.56
2022-07-30T02:43:06.456Z,99.66
2022-07-30T02:44:06.416Z,99.66
2022-07-30T02:45:06.403Z,99.77
2022-07-30T02:46:06.392Z,99.77
2022-07-30T02:47:06.527Z,99.87
2022-07-30T02:48:06.386Z,99.99
2022-07-30T02:49:06.472Z,99.99
2022-07-30T02:50:06.366Z,99.99
2022-07-30T02:51:06.334Z,99.99
2022-07-30T02:52:06.325Z,99.99
2022-07-30T02:53:06.317Z,99.99
2022-07-30T02:54:06.333Z,99.99
2022-07-30T02:55:06.287Z,99.99
2022-07-30T02:56:06.278Z,99.99
2022-07-30T02:57:06.267Z,99.99
2022-07-30T02:58:06.247Z,99.99
2022-07-30T02:59:06.295Z,99.99
2022-07-30T03:00:06.240Z,99.99
2022-07-30T03:01:06.250Z,99.99
2022-07-30T03:02:06.276Z,99.99
2022-07-30T03:03:06.206Z,99.99
2022-07-30T03:04:06.185Z,99.99
2022-07-30T03:05:06.264Z,99.99
2022-07-30T03:06:06.177Z,99.99
2022-07-30T03:07:08.349Z,99.99
2022-07-30T03:08:06.136Z,99.99
2022-07-30T03:09:06.163Z,99.99
2022-07-30T03:10:06.137Z,99.99
2022-07-30T03:11:06.099Z,99.99
2022-07-30T03:12:06.081Z,99.99
2022-07-30T03:13:06.121Z,99.99
2022-07-30T03:14:06.079Z,99.99
2022-07-30T03:15:06.088Z,99.99
2022-07-30T03:16:06.111Z,99.99
2022-07-30T03:17:06.029Z,99.99
2022-07-30T03:18:06.018Z,99.99
2022-07-30T03:19:06.000Z,99.99
2022-07-30T03:20:06.005Z,99.99
2022-07-30T03:21:05.998Z,99.99
2022-07-30T03:22:05.960Z,99.99
2022-07-30T03:23:05.949Z,99.99
2022-07-30T03:24:05.950Z,99.99
2022-07-30T03:25:05.940Z,99.99
2022-07-30T03:26:05.941Z,99.99
2022-07-30T03:27:05.923Z,99.99
2022-07-30T03:28:05.902Z,99.99
2022-07-30T03:29:05.895Z,99.99
2022-07-30T03:30:05.871Z,99.99
2022-07-30T03:31:05.930Z,99.99
2022-07-30T03:32:05.885Z,99.99
2022-07-30T03:33:05.832Z,99.99
2022-07-30T03:34:06.420Z,99.99
2022-07-30T03:35:06.348Z,99.99
2022-07-30T03:36:05.813Z,99.99
2022-07-30T03:37:05.824Z,99.99
2022-07-30T03:38:05.805Z,99.99
2022-07-30T03:39:05.763Z,99.99
2022-07-30T03:40:05.757Z,99.99
2022-07-30T03:41:05.740Z,99.99
2022-07-30T03:42:05.752Z,99.99
2022-07-30T03:43:05.755Z,99.99
2022-07-30T03:44:06.727Z,99.99
2022-07-30T03:45:05.695Z,99.99
2022-07-30T03:46:05.755Z,99.99
2022-07-30T03:47:06.142Z,99.99
2022-07-30T03:48:05.666Z,99.99
2022-07-30T03:49:05.791Z,99.99
2022-07-30T03:50:05.650Z,99.99
2022-07-30T03:51:05.636Z,99.99
2022-07-30T03:52:05.617Z,99.99
2022-07-30T03:53:05.606Z,99.99
2022-07-30T03:54:05.633Z,99.99
2022-07-30T03:55:05.613Z,99.99
2022-07-30T03:56:05.579Z,99.99
2022-07-30T03:57:05.568Z,99.99
2022-07-30T03:58:05.617Z,99.99
2022-07-30T03:59:05.548Z,99.99
2022-07-30T04:00:05.574Z,99.99
2022-07-30T04:01:05.557Z,99.99
2022-07-30T04:02:06.831Z,99.99
2022-07-30T04:03:05.502Z,99.99
2022-07-30T04:04:05.594Z,99.99
2022-07-30T04:05:05.515Z,99.99
2022-07-30T04:06:05.474Z,99.99
2022-07-30T04:07:05.471Z,99.99
2022-07-30T04:08:05.440Z,99.99
2022-07-30T04:09:05.429Z,99.99
2022-07-30T04:10:05.505Z,99.99
2022-07-30T04:11:05.450Z,99.99
2022-07-30T04:12:05.398Z,99.99
2022-07-30T04:13:09.177Z,99.99
2022-07-30T04:14:05.381Z,99.99
2022-07-30T04:16:05.623Z,99.99
2022-07-30T04:16:41.247Z,99.99
2022-07-30T04:17:06.400Z,99.99
2022-07-30T04:18:05.349Z,99.99
2022-07-30T04:19:05.321Z,99.99
2022-07-30T04:20:05.321Z,99.99
2022-07-30T04:21:05.301Z,99.99
2022-07-30T04:22:05.311Z,99.99
2022-07-30T04:23:05.294Z,99.99
2022-07-30T04:24:05.720Z,99.99
2022-07-30T04:25:05.273Z,99.99
2022-07-30T04:26:05.252Z,99.99
2022-07-30T04:27:05.266Z,99.99
2022-07-30T04:28:05.222Z,99.99
2022-07-30T04:29:05.247Z,99.99
2022-07-30T04:30:05.205Z,99.99
2022-07-30T04:31:05.255Z,99.99
2022-07-30T04:32:05.184Z,99.99
2022-07-30T04:33:05.195Z,99.99
2022-07-30T04:34:05.154Z,99.99
2022-07-30T04:35:05.149Z,99.99
2022-07-30T04:36:05.143Z,99.99
2022-07-30T04:37:05.175Z,99.99
2022-07-30T04:38:05.135Z,99.99
2022-07-30T04:39:05.095Z,99.99
2022-07-30T04:40:05.088Z,99.99
2022-07-30T04:41:05.105Z,99.99
2022-07-30T04:42:05.060Z,99.99
2022-07-30T04:43:05.058Z,99.99
2022-07-30T04:44:05.073Z,99.99
2022-07-30T04:45:05.038Z,99.99
2022-07-30T04:46:05.066Z,99.99
2022-07-30T04:47:05.007Z,99.99
2022-07-30T04:48:04.994Z,99.99
2022-07-30T04:49:05.051Z,99.99
2022-07-30T04:50:04.971Z,99.99
2022-07-30T04:51:04.989Z,99.99
2022-07-30T04:52:04.949Z,99.99
2022-07-30T04:53:04.929Z,99.99
2022-07-30T04:54:04.938Z,99.99
2022-07-30T04:55:04.931Z,99.99
2022-07-30T04:56:04.909Z,99.99
2022-07-30T04:57:05.063Z,99.99
2022-07-30T04:58:04.887Z,99.99
2022-07-30T04:59:04.861Z,99.99
2022-07-30T05:00:04.907Z,99.99
2022-07-30T05:01:04.841Z,99.99
2022-07-30T05:02:04.925Z,99.99
2022-07-30T05:03:04.820Z,99.62
2022-07-30T05:04:04.824Z,99.02
2022-07-30T05:05:04.879Z,98.71
2022-07-30T05:06:04.806Z,98.51
2022-07-30T05:07:04.989Z,98.41
2022-07-30T05:08:04.753Z,98.41
2022-07-30T05:09:04.753Z,98.41
2022-07-30T05:10:04.734Z,97.96
2022-07-30T05:11:04.753Z,97.00
2022-07-30T05:12:04.722Z,96.59
2022-07-30T05:13:04.702Z,96.80
2022-07-30T05:14:04.693Z,96.69
2022-07-30T05:15:04.674Z,96.80
2022-07-30T05:16:04.719Z,96.80
2022-07-30T05:17:04.699Z,96.55
2022-07-30T05:18:04.712Z,96.25
2022-07-30T05:19:07.702Z,96.14
2022-07-30T05:20:04.636Z,96.04
2022-07-30T05:21:04.614Z,96.04
2022-07-30T05:22:06.826Z,96.04
2022-07-30T05:23:04.604Z,95.74
2022-07-30T05:24:04.578Z,95.34
2022-07-30T05:25:04.555Z,95.23
2022-07-30T05:26:05.573Z,95.34
2022-07-30T05:27:04.684Z,95.29
2022-07-30T05:28:04.549Z,95.09
2022-07-30T05:29:07.145Z,94.89
2022-07-30T05:30:04.518Z,94.99
2022-07-30T05:31:08.617Z,94.79
2022-07-30T05:32:04.487Z,94.48
2022-07-30T05:33:08.693Z,94.38
2022-07-30T05:34:05.460Z,94.48
2022-07-30T05:35:04.467Z,94.48
2022-07-30T05:36:04.469Z,94.18
2022-07-30T05:37:04.903Z,94.38
2022-07-30T05:38:04.421Z,94.48
2022-07-30T05:39:04.429Z,94.24
2022-07-30T05:40:05.101Z,93.48
2022-07-30T05:41:04.380Z,92.97
2022-07-30T05:42:05.391Z,92.93
2022-07-30T05:43:04.371Z,93.33
2022-07-30T05:44:04.370Z,93.02
2022-07-30T05:45:04.331Z,92.52
2022-07-30T05:46:04.459Z,92.32
2022-07-30T05:47:04.310Z,92.22
2022-07-30T05:48:04.342Z,91.82
2022-07-30T05:49:04.432Z,91.82
2022-07-30T05:50:05.059Z,92.18
2022-07-30T05:51:04.265Z,92.07
2022-07-30T05:52:04.298Z,91.87
2022-07-30T05:53:04.283Z,91.63
2022-07-30T05:54:04.972Z,91.22
2022-07-30T05:55:04.224Z,91.22
2022-07-30T05:56:04.302Z,90.82
2022-07-30T05:57:04.438Z,90.82
2022-07-30T05:58:04.185Z,90.68
2022-07-30T05:59:04.203Z,89.87
2022-07-30T06:00:04.183Z,89.91
2022-07-30T06:01:04.224Z,89.97
2022-07-30T06:02:04.233Z,89.97
2022-07-30T06:03:04.139Z,89.97
2022-07-30T06:04:04.193Z,89.87
2022-07-30T06:05:04.178Z,89.37
2022-07-30T06:06:04.131Z,89.03
2022-07-30T06:07:04.398Z,88.62
2022-07-30T06:08:04.075Z,88.42
2022-07-30T06:09:04.066Z,88.28
2022-07-30T06:10:04.047Z,87.77
2022-07-30T06:11:04.069Z,87.77
2022-07-30T06:12:04.061Z,87.83
2022-07-30T06:13:04.071Z,87.23
2022-07-30T06:14:04.011Z,86.72
2022-07-30T06:15:04.007Z,86.43
2022-07-30T06:16:04.042Z,86.02
2022-07-30T06:17:04.266Z,86.12
2022-07-30T06:18:03.988Z,86.32
2022-07-30T06:19:03.955Z,85.98
2022-07-30T06:20:03.940Z,85.68
2022-07-30T06:21:03.928Z,85.08
2022-07-30T06:22:06.742Z,84.74
2022-07-30T06:23:03.916Z,84.53
2022-07-30T06:24:03.940Z,84.13
2022-07-30T06:25:03.881Z,83.18
2022-07-30T06:26:03.870Z,83.18
2022-07-30T06:27:04.204Z,83.18
2022-07-30T06:28:15.673Z,83.89
2022-07-30T06:29:04.899Z,83.15
2022-07-30T06:30:03.826Z,82.54
2022-07-30T06:31:03.882Z,81.74
2022-07-30T06:32:03.803Z,81.90
2022-07-30T06:33:03.792Z,80.60
2022-07-30T06:34:03.776Z,81.76
2022-07-30T06:35:04.984Z,78.75
2022-07-30T06:36:03.774Z,78.66
2022-07-30T06:37:04.002Z,78.85
2022-07-30T06:38:07.300Z,78.89
2022-07-30T06:39:03.732Z,79.60
2022-07-30T06:40:03.720Z,79.19
2022-07-30T06:41:04.617Z,79.03
2022-07-30T06:42:03.684Z,79.49
2022-07-30T06:43:03.675Z,78.29
2022-07-30T06:44:03.665Z,78.73
2022-07-30T06:45:03.656Z,78.93
2022-07-30T06:46:03.756Z,79.09
2022-07-30T06:47:07.933Z,79.39
2022-07-30T06:48:03.628Z,79.60
2022-07-30T06:49:03.681Z,78.59
2022-07-30T06:50:03.607Z,78.79
2022-07-30T06:51:03.599Z,79.60
2022-07-30T06:52:03.606Z,78.85
2022-07-30T06:53:03.556Z,78.85
2022-07-30T06:54:03.559Z,79.12
2022-07-30T06:55:03.551Z,78.61
2022-07-30T06:56:03.538Z,78.22
2022-07-30T06:57:03.825Z,77.61
2022-07-30T06:58:03.546Z,77.61
2022-07-30T06:59:03.552Z,77.25
2022-07-30T07:00:03.488Z,78.66
2022-07-30T07:01:03.563Z,78.55
2022-07-30T07:02:04.459Z,78.85
2022-07-30T07:03:03.500Z,78.85
2022-07-30T07:04:03.531Z,78.92
2022-07-30T07:05:03.440Z,78.42
2022-07-30T07:06:03.421Z,78.38
2022-07-30T07:07:03.402Z,78.38
2022-07-30T07:08:04.430Z,77.94
2022-07-30T07:09:03.383Z,77.14
2022-07-30T07:10:03.361Z,77.60
2022-07-30T07:11:03.357Z,76.67
2022-07-30T07:12:03.370Z,75.37
2022-07-30T07:13:03.332Z,73.76
2022-07-30T07:14:04.879Z,73.86
2022-07-30T07:15:03.306Z,74.96
2022-07-30T07:16:03.304Z,75.23
2022-07-30T07:17:03.468Z,74.93
2022-07-30T07:18:03.274Z,74.33
2022-07-30T07:19:03.279Z,75.33
2022-07-30T07:20:03.291Z,75.02
2022-07-30T07:21:03.282Z,75.59
2022-07-30T07:22:03.231Z,73.89
2022-07-30T07:23:09.503Z,73.36
2022-07-30T07:24:04.214Z,72.96
2022-07-30T07:25:03.203Z,72.32
2022-07-30T07:26:03.224Z,73.36
2022-07-30T07:27:03.586Z,72.06
2022-07-30T07:28:12.258Z,73.99
2022-07-30T07:29:05.412Z,73.89
2022-07-30T07:30:06.072Z,73.79
2022-07-30T07:31:03.192Z,73.69
2022-07-30T07:32:06.706Z,74.09
2022-07-30T07:33:03.108Z,71.99
2022-07-30T07:34:03.104Z,71.99
2022-07-30T07:35:03.087Z,73.89
2022-07-30T07:36:03.247Z,72.09
2022-07-30T07:37:03.383Z,72.06
2022-07-30T07:38:03.108Z,71.99
2022-07-30T07:39:03.049Z,72.45
2022-07-30T07:40:03.020Z,72.26
2022-07-30T07:41:03.030Z,71.76
2022-07-30T07:42:03.021Z,71.66
2022-07-30T07:43:03.013Z,72.76
2022-07-30T07:44:02.981Z,72.22
2022-07-30T07:45:02.960Z,70.83
2022-07-30T07:46:03.039Z,70.53
2022-07-30T07:47:03.213Z,70.62
2022-07-30T07:48:03.243Z,70.03
2022-07-30T07:49:03.010Z,70.83
2022-07-30T07:50:02.951Z,70.36
2022-07-30T07:51:02.941Z,70.76
2022-07-30T07:52:03.894Z,70.96
2022-07-30T07:53:02.864Z,70.56
2022-07-30T07:54:20.575Z,71.66
2022-07-30T07:55:03.866Z,70.53
2022-07-30T07:56:02.857Z,69.82
2022-07-30T07:57:04.269Z,71.92
2022-07-30T07:58:02.816Z,70.29
2022-07-30T07:59:02.796Z,70.56
2022-07-30T08:00:02.819Z,69.16
2022-07-30T08:01:02.859Z,68.36
2022-07-30T08:02:03.912Z,70.23
2022-07-30T08:03:02.767Z,68.53
2022-07-30T08:04:02.745Z,68.83
2022-07-30T08:05:03.770Z,68.33
2022-07-30T08:06:06.252Z,67.90
2022-07-30T08:07:03.309Z,66.20
2022-07-30T08:08:02.729Z,65.61
2022-07-30T08:09:02.692Z,66.03
2022-07-30T08:10:02.708Z,66.80
2022-07-30T08:11:02.690Z,65.31
2022-07-30T08:12:02.660Z,64.67
2022-07-30T08:13:02.666Z,65.41
2022-07-30T08:14:02.639Z,64.18
2022-07-30T08:15:02.630Z,62.98
2022-07-30T08:16:02.610Z,62.74
2022-07-30T08:17:03.150Z,64.17
2022-07-30T08:18:02.593Z,64.77
2022-07-30T08:19:02.591Z,65.14
2022-07-30T08:20:02.580Z,64.94
2022-07-30T08:21:02.552Z,64.54
2022-07-30T08:22:02.544Z,67.23
2022-07-30T08:23:02.543Z,66.07
2022-07-30T08:24:02.522Z,65.77
2022-07-30T08:25:03.776Z,65.08
2022-07-30T08:26:02.495Z,65.08
2022-07-30T08:27:02.738Z,64.18
2022-07-30T08:28:02.513Z,65.64
2022-07-30T08:29:02.465Z,63.85
2022-07-30T08:30:02.454Z,65.31
2022-07-30T08:31:02.758Z,64.09
2022-07-30T08:32:02.706Z,63.09
2022-07-30T08:33:02.424Z,64.58
2022-07-30T08:34:02.458Z,60.38
2022-07-30T08:35:02.395Z,59.78
2022-07-30T08:36:03.123Z,60.00
2022-07-30T08:37:02.381Z,59.31
2022-07-30T08:38:02.368Z,59.31
2022-07-30T08:39:03.351Z,58.71
2022-07-30T08:40:03.599Z,59.01
2022-07-30T08:41:02.325Z,59.44
2022-07-30T08:42:02.527Z,59.83
2022-07-30T08:43:02.315Z,60.24
2022-07-30T08:44:02.305Z,60.30
2022-07-30T08:45:02.344Z,58.98
2022-07-30T08:46:02.309Z,59.18
2022-07-30T08:47:02.459Z,59.45
2022-07-30T08:48:02.269Z,59.45
2022-07-30T08:49:06.458Z,58.56
2022-07-30T08:50:03.233Z,57.56
2022-07-30T08:51:02.216Z,57.76
2022-07-30T08:52:02.541Z,58.56
2022-07-30T08:53:02.201Z,58.83
2022-07-30T08:54:02.196Z,58.43
2022-07-30T08:55:02.164Z,57.04
2022-07-30T08:56:02.163Z,58.73
2022-07-30T08:57:02.185Z,55.87
2022-07-30T08:58:02.144Z,57.39
2022-07-30T08:59:02.130Z,57.75
2022-07-30T09:00:02.226Z,58.84
2022-07-30T09:01:02.108Z,57.22
2022-07-30T09:02:02.281Z,57.71
2022-07-30T09:03:02.094Z,57.02
2022-07-30T09:04:02.195Z,57.22
2022-07-30T09:05:02.070Z,58.28
2022-07-30T09:06:02.045Z,56.47
2022-07-30T09:07:02.276Z,56.67
2022-07-30T09:08:03.296Z,55.97
2022-07-30T09:09:02.016Z,54.90
2022-07-30T09:10:01.999Z,54.43
2022-07-30T09:11:01.995Z,55.73
2022-07-30T09:12:02.244Z,55.13
2022-07-30T09:13:01.966Z,54.73
2022-07-30T09:14:04.813Z,56.37
2022-07-30T09:15:01.977Z,54.25
2022-07-30T09:16:02.061Z,54.23
2022-07-30T09:17:02.084Z,53.36
2022-07-30T09:18:01.959Z,54.46
2022-07-30T09:19:01.915Z,54.35
2022-07-30T09:20:01.951Z,55.02
2022-07-30T09:21:01.869Z,51.70
2022-07-30T09:22:01.869Z,51.60
2022-07-30T09:23:01.869Z,52.59
2022-07-30T09:24:01.838Z,52.98
2022-07-30T09:25:01.830Z,52.37
2022-07-30T09:26:01.863Z,50.58
2022-07-30T09:27:02.041Z,49.09
2022-07-30T09:28:01.801Z,47.80
2022-07-30T09:29:01.791Z,48.52
2022-07-30T09:30:01.771Z,48.30
2022-07-30T09:31:01.767Z,48.50
2022-07-30T09:32:02.045Z,49.59
2022-07-30T09:33:01.761Z,48.38
2022-07-30T09:34:01.727Z,48.69
2022-07-30T09:35:01.736Z,48.50
2022-07-30T09:36:01.703Z,48.62
2022-07-30T09:37:01.728Z,49.21
2022-07-30T09:38:06.014Z,48.92
2022-07-30T09:39:01.682Z,50.31
2022-07-30T09:40:01.680Z,51.10
2022-07-30T09:41:08.124Z,50.40
2022-07-30T09:42:03.155Z,50.78
2022-07-30T09:43:01.635Z,50.85
2022-07-30T09:44:01.624Z,50.16
2022-07-30T09:45:01.621Z,47.88
2022-07-30T09:46:01.625Z,47.58
2022-07-30T09:47:01.586Z,47.98
2022-07-30T09:48:01.630Z,48.69
2022-07-30T09:49:01.635Z,49.41
2022-07-30T09:50:07.046Z,49.71
2022-07-30T09:51:02.547Z,49.51
2022-07-30T09:52:01.584Z,48.80
2022-07-30T09:53:01.543Z,47.88
2022-07-30T09:54:01.593Z,48.57
2022-07-30T09:55:01.513Z,47.63
2022-07-30T09:56:01.490Z,46.64
2022-07-30T09:57:01.480Z,47.06
2022-07-30T09:58:02.919Z,47.71
2022-07-30T09:59:01.505Z,48.50
2022-07-30T10:00:01.772Z,47.66
2022-07-30T10:01:01.433Z,47.83
2022-07-30T10:02:04.186Z,46.23
2022-07-30T10:03:12.623Z,45.61
2022-07-30T10:04:02.391Z,46.11
2022-07-30T10:05:01.391Z,45.90
2022-07-30T10:06:01.429Z,45.79
2022-07-30T10:07:01.373Z,45.01
2022-07-30T10:08:05.488Z,45.71
2022-07-30T10:09:02.342Z,45.73
2022-07-30T10:10:02.367Z,46.52
2022-07-30T10:11:05.155Z,46.55
2022-07-30T10:12:02.775Z,46.30
2022-07-30T10:13:01.344Z,47.01
2022-07-30T10:14:01.304Z,47.65
2022-07-30T10:15:01.278Z,48.14
2022-07-30T10:16:01.265Z,48.35
2022-07-30T10:17:01.256Z,48.62
2022-07-30T10:18:01.272Z,47.90
2022-07-30T10:19:01.278Z,47.63
2022-07-30T10:20:02.850Z,48.13
2022-07-30T10:21:05.504Z,48.14
2022-07-30T10:22:01.446Z,48.77
2022-07-30T10:23:07.931Z,49.19
2022-07-30T10:24:02.228Z,49.29
2022-07-30T10:25:01.179Z,49.07
2022-07-30T10:26:03.619Z,48.89
2022-07-30T10:27:01.286Z,49.19
2022-07-30T10:28:03.122Z,49.61
2022-07-30T10:29:01.110Z,49.91
2022-07-30T10:30:03.580Z,50.10
2022-07-30T10:31:01.111Z,49.58
2022-07-30T10:32:02.090Z,50.18
2022-07-30T10:33:01.518Z,50.48
2022-07-30T10:34:01.060Z,49.78
2022-07-30T10:35:01.073Z,50.10
2022-07-30T10:36:02.697Z,51.00
2022-07-30T10:37:01.908Z,51.40
2022-07-30T10:38:02.030Z,50.98
2022-07-30T10:39:01.018Z,50.78
2022-07-30T10:40:01.029Z,50.65
2022-07-30T10:41:00.980Z,50.45
2022-07-30T10:42:00.984Z,51.23
2022-07-30T10:43:01.001Z,50.53
2022-07-30T10:44:00.948Z,51.15
2022-07-30T10:45:00.936Z,51.52
2022-07-30T10:46:00.945Z,50.83
2022-07-30T10:47:01.081Z,50.73
2022-07-30T10:48:01.910Z,51.42
2022-07-30T10:49:00.925Z,51.52
2022-07-30T10:50:00.897Z,51.82
2022-07-30T10:51:01.174Z,51.92
2022-07-30T10:52:00.880Z,52.00
2022-07-30T10:53:00.866Z,51.20
2022-07-30T10:54:00.858Z,51.18
2022-07-30T10:55:00.826Z,51.28
2022-07-30T10:56:01.005Z,51.45
2022-07-30T10:57:00.943Z,50.85
2022-07-30T10:58:00.798Z,51.37
2022-07-30T10:59:00.798Z,51.70
2022-07-30T11:00:01.118Z,51.60
2022-07-30T11:01:00.783Z,52.19
2022-07-30T11:02:00.940Z,52.59
2022-07-30T11:03:00.746Z,52.09
2022-07-30T11:04:01.720Z,52.24
2022-07-30T11:05:00.740Z,53.23
2022-07-30T11:06:00.701Z,53.44
2022-07-30T11:07:00.691Z,52.94
2022-07-30T11:08:00.692Z,52.94
2022-07-30T11:09:00.693Z,52.67
2022-07-30T11:10:09.171Z,52.64
2022-07-30T11:11:19.669Z,52.54
2022-07-30T11:12:06.433Z,52.12
2022-07-30T11:13:01.647Z,51.79
2022-07-30T11:14:00.623Z,51.42
2022-07-30T11:15:07.254Z,52.02
2022-07-30T11:16:01.594Z,52.69
2022-07-30T11:17:00.589Z,51.18
2022-07-30T11:18:00.638Z,51.15
2022-07-30T11:19:27.299Z,50.23
2022-07-30T11:20:01.645Z,49.84
2022-07-30T11:21:00.556Z,49.86
2022-07-30T11:22:01.707Z,50.90
2022-07-30T11:23:00.516Z,51.42
2022-07-30T11:24:00.533Z,51.67
2022-07-30T11:25:00.553Z,52.26
2022-07-30T11:26:01.427Z,52.67
2022-07-30T11:27:00.507Z,52.84
2022-07-30T11:28:01.418Z,52.44
2022-07-30T11:29:00.467Z,54.00
2022-07-30T11:30:00.441Z,52.29
2022-07-30T11:31:00.437Z,51.97
2022-07-30T11:32:06.581Z,52.07
2022-07-30T11:33:01.399Z,51.57
2022-07-30T11:34:00.462Z,51.77
2022-07-30T11:35:00.436Z,51.75
2022-07-30T11:36:01.306Z,52.12
2022-07-30T11:37:00.370Z,51.32
2022-07-30T11:38:02.116Z,50.81
2022-07-30T11:39:05.252Z,50.73
2022-07-30T11:40:01.361Z,50.56
2022-07-30T11:41:01.260Z,50.09
2022-07-30T11:42:00.665Z,49.29
2022-07-30T11:43:01.254Z,50.48
2022-07-30T11:44:00.316Z,49.88
2022-07-30T11:45:04.042Z,49.46
2022-07-30T11:46:01.234Z,49.84
2022-07-30T11:47:00.287Z,47.93
2022-07-30T11:48:00.345Z,47.86
2022-07-30T11:49:00.429Z,47.93
2022-07-30T11:50:00.338Z,47.74
2022-07-30T11:51:03.832Z,47.49
2022-07-30T11:52:01.418Z,48.27
2022-07-30T11:53:00.336Z,48.45
2022-07-30T11:54:00.197Z,48.03
2022-07-30T11:55:00.188Z,48.60
2022-07-30T11:56:00.149Z,46.70
2022-07-30T11:57:04.351Z,47.09
2022-07-30T11:58:00.159Z,46.78
2022-07-30T11:59:00.128Z,47.17
2022-07-30T12:00:00.123Z,47.05
2022-07-30T12:01:00.099Z,46.16
2022-07-30T12:02:00.568Z,46.44
2022-07-30T12:03:03.842Z,45.74
2022-07-30T12:04:00.064Z,45.86
2022-07-30T12:05:00.061Z,46.23
2022-07-30T12:06:00.055Z,47.04
2022-07-30T12:07:00.467Z,47.22
2022-07-30T12:08:00.021Z,47.02
2022-07-30T12:09:00.037Z,47.16
2022-07-30T12:10:00.034Z,47.56
2022-07-30T12:10:59.986Z,47.86
2022-07-30T12:12:00.865Z,47.14
2022-07-30T12:12:59.962Z,47.74
2022-07-30T12:13:59.950Z,47.83
2022-07-30T12:15:01.956Z,48.13
2022-07-30T12:15:59.938Z,48.40
2022-07-30T12:17:00.262Z,47.89
2022-07-30T12:18:24.131Z,46.88
2022-07-30T12:19:00.894Z,44.87
2022-07-30T12:19:59.905Z,46.04
2022-07-30T12:20:59.869Z,45.89
2022-07-30T12:21:59.865Z,46.26
2022-07-30T12:22:59.883Z,46.36
2022-07-30T12:23:59.827Z,45.98
2022-07-30T12:24:59.835Z,47.00
2022-07-30T12:25:59.837Z,46.70
2022-07-30T12:27:00.274Z,46.03
2022-07-30T12:27:59.807Z,46.94
2022-07-30T12:28:59.779Z,47.53
2022-07-30T12:29:59.758Z,47.71
2022-07-30T12:30:59.757Z,46.58
2022-07-30T12:31:59.780Z,45.27
2022-07-30T12:32:59.747Z,44.09
2022-07-30T12:33:59.721Z,44.65
2022-07-30T12:34:59.707Z,44.65
2022-07-30T12:35:59.699Z,45.39
2022-07-30T12:36:59.858Z,46.28
2022-07-30T12:37:59.690Z,46.36
2022-07-30T12:38:59.662Z,44.09
2022-07-30T12:39:59.645Z,43.80
2022-07-30T12:40:59.632Z,44.32
2022-07-30T12:41:59.623Z,45.31
2022-07-30T12:42:59.662Z,44.90
2022-07-30T12:43:59.602Z,43.80
2022-07-30T12:44:59.627Z,44.06
2022-07-30T12:45:59.586Z,44.38
2022-07-30T12:46:59.909Z,44.85
2022-07-30T12:47:59.575Z,44.56
2022-07-30T12:49:06.932Z,44.90
2022-07-30T12:50:01.399Z,45.39
2022-07-30T12:50:59.532Z,46.06
2022-07-30T12:52:00.402Z,44.46